createdAt,value
2019-04-16T00:00:31.635Z,33.25
2019-04-16T00:03:33.209Z,26.10
2019-04-16T00:06:53.026Z,24.65
2019-04-16T00:10:02.129Z,22.98
2019-04-16T00:13:22.179Z,28.10
2019-04-16T00:16:23.455Z,22.52
2019-04-16T00:19:24.723Z,20.85
2019-04-16T00:22:27.913Z,24.00
2019-04-16T00:25:29.186Z,25.68
2019-04-16T00:28:35.480Z,21.50
2019-04-16T00:31:37.752Z,25.77
2019-04-16T00:34:39.152Z,25.00
2019-04-16T00:37:40.417Z,27.50
2019-04-16T00:40:41.902Z,21.82
2019-04-16T00:43:44.250Z,27.90
2019-04-16T00:46:46.518Z,24.43
2019-04-16T00:49:47.788Z,24.77
2019-04-16T00:52:49.183Z,24.90
2019-04-16T00:55:50.458Z,21.60
2019-04-16T00:58:52.990Z,22.52
2019-04-16T01:01:54.417Z,25.45
2019-04-16T01:05:15.841Z,22.52
2019-04-16T01:08:17.133Z,22.02
2019-04-16T01:11:18.698Z,24.67
2019-04-16T01:14:19.974Z,22.20
2019-04-16T01:17:21.253Z,22.30
2019-04-16T01:20:22.532Z,25.15
2019-04-16T01:23:23.851Z,26.40
2019-04-16T01:26:26.905Z,25.02
2019-04-16T01:29:33.661Z,20.62
2019-04-16T01:32:43.413Z,24.00
2019-04-16T01:35:51.023Z,22.77
2019-04-16T01:38:51.736Z,21.35
2019-04-16T01:41:53.407Z,23.00
2019-04-16T01:44:59.360Z,20.32
2019-04-16T01:47:58.465Z,26.62
2019-04-16T01:50:59.854Z,24.52
2019-04-16T01:54:01.911Z,28.87
2019-04-16T01:57:03.292Z,20.97
2019-04-16T02:00:08.244Z,31.82
2019-04-16T02:03:09.932Z,22.20
2019-04-16T02:06:11.391Z,35.38
2019-04-16T02:09:22.251Z,29.95
2019-04-16T02:12:15.753Z,35.43
2019-04-16T02:15:21.654Z,41.08
2019-04-16T02:18:20.282Z,33.35
2019-04-16T02:21:23.573Z,56.50
2019-04-16T02:24:24.850Z,51.02
2019-04-16T02:27:28.412Z,45.50
2019-04-16T02:30:33.715Z,54.95
2019-04-16T02:33:33.325Z,386.37
2019-04-16T02:36:34.566Z,206.70
2019-04-16T02:39:47.721Z,185.35
2019-04-16T02:42:39.065Z,99.83
2019-04-16T02:45:41.093Z,132.27
2019-04-16T02:48:49.979Z,92.62
2019-04-16T02:51:51.243Z,99.20
2019-04-16T02:54:54.416Z,118.50
2019-04-16T02:58:00.261Z,94.25
2019-04-16T03:01:20.405Z,86.87
2019-04-16T03:04:26.684Z,72.62
2019-04-16T03:07:25.332Z,79.97
2019-04-16T03:10:26.601Z,59.18
2019-04-16T03:13:28.056Z,57.75
2019-04-16T03:16:37.658Z,52.25
2019-04-16T03:19:39.148Z,51.13
2019-04-16T03:22:40.636Z,48.13
2019-04-16T03:25:44.427Z,78.42
2019-04-16T03:28:45.117Z,49.75
2019-04-16T03:31:46.454Z,55.25
2019-04-16T03:34:50.607Z,53.40
2019-04-16T03:37:50.835Z,54.63
2019-04-16T03:40:55.856Z,50.85
2019-04-16T03:43:56.143Z,48.98
2019-04-16T03:46:57.433Z,55.43
2019-04-16T03:49:59.299Z,68.72
2019-04-16T03:53:01.592Z,64.62
2019-04-16T03:56:03.059Z,66.97
2019-04-16T03:59:04.343Z,65.83
2019-04-16T04:02:05.823Z,63.05
2019-04-16T04:05:07.521Z,61.00
2019-04-16T04:08:10.164Z,54.27
2019-04-16T04:11:11.449Z,49.88
2019-04-16T04:14:12.864Z,60.28
2019-04-16T04:17:15.180Z,58.75
2019-04-16T04:20:18.129Z,62.50
2019-04-16T04:23:20.452Z,54.60
2019-04-16T04:26:21.727Z,49.38
2019-04-16T04:29:24.771Z,48.68
2019-04-16T04:32:26.299Z,53.48
2019-04-16T04:35:27.755Z,39.73
2019-04-16T04:38:29.552Z,41.70
2019-04-16T04:41:30.947Z,39.78
2019-04-16T04:44:33.663Z,35.65
2019-04-16T04:47:35.648Z,27.15
2019-04-16T04:50:36.911Z,31.27
2019-04-16T04:53:38.374Z,31.00
2019-04-16T04:56:39.651Z,26.42
2019-04-16T04:59:41.874Z,27.35
2019-04-16T05:02:43.757Z,24.35
2019-04-16T05:05:56.147Z,29.72
2019-04-16T05:08:57.664Z,25.10
2019-04-16T05:12:00.322Z,27.58
2019-04-16T05:15:03.879Z,25.97
2019-04-16T05:18:05.876Z,29.10
2019-04-16T05:21:07.418Z,22.07
2019-04-16T05:24:09.689Z,25.40
2019-04-16T05:27:10.969Z,31.90
2019-04-16T05:30:12.902Z,26.25
2019-04-16T05:33:14.177Z,20.77
2019-04-16T05:36:15.754Z,26.10
2019-04-16T05:39:17.138Z,21.00
2019-04-16T05:42:18.625Z,19.82
2019-04-16T05:45:19.909Z,26.17
2019-04-16T05:48:22.716Z,21.35
2019-04-16T05:51:24.096Z,23.75
2019-04-16T05:54:36.142Z,25.23
2019-04-16T05:57:39.675Z,24.87
2019-04-16T06:00:43.044Z,17.90
2019-04-16T06:03:44.439Z,21.97
2019-04-16T06:06:47.649Z,18.35
2019-04-16T06:09:50.049Z,17.45
2019-04-16T06:13:12.600Z,16.82
2019-04-16T06:16:18.596Z,22.82
2019-04-16T06:19:31.066Z,17.73
2019-04-16T06:22:49.684Z,17.55
2019-04-16T06:25:53.235Z,17.37
2019-04-16T06:29:13.654Z,25.57
2019-04-16T06:32:22.841Z,15.50
2019-04-16T06:35:44.507Z,16.50
2019-04-16T06:38:57.758Z,19.57
2019-04-16T06:42:04.832Z,14.43
2019-04-16T06:45:08.019Z,12.28
2019-04-16T06:48:13.138Z,15.13
2019-04-16T06:51:16.193Z,21.95
2019-04-16T06:54:19.565Z,11.22
2019-04-16T06:57:42.927Z,12.05
2019-04-16T07:01:06.017Z,16.40
2019-04-16T07:04:08.384Z,12.43
2019-04-16T07:07:14.801Z,37.65
2019-04-16T07:10:18.220Z,15.88
2019-04-16T07:13:19.693Z,13.05
2019-04-16T07:16:21.096Z,12.40
2019-04-16T07:19:22.897Z,13.22
2019-04-16T07:22:24.153Z,23.50
2019-04-16T07:25:27.882Z,9.83
2019-04-16T07:28:31.392Z,9.28
2019-04-16T07:31:37.749Z,10.23
2019-04-16T07:34:56.571Z,10.30
2019-04-16T07:38:15.244Z,18.23
2019-04-16T07:41:24.441Z,24.67
2019-04-16T07:44:27.735Z,13.25
2019-04-16T07:47:48.287Z,11.05
2019-04-16T07:51:04.819Z,9.65
2019-04-16T07:54:07.230Z,8.18
2019-04-16T07:57:08.715Z,9.33
2019-04-16T08:00:10.190Z,8.80
2019-04-16T08:03:11.685Z,13.55
2019-04-16T08:06:14.263Z,11.83
2019-04-16T08:09:16.012Z,6.80
2019-04-16T08:12:29.947Z,8.48
2019-04-16T08:15:21.022Z,8.58
2019-04-16T08:18:22.303Z,11.10
2019-04-16T08:21:23.765Z,9.03
2019-04-16T08:24:27.196Z,8.83
2019-04-16T08:27:28.501Z,8.63
2019-04-16T08:30:34.106Z,12.58
2019-04-16T08:33:33.322Z,13.30
2019-04-16T08:36:35.119Z,9.58
2019-04-16T08:39:36.886Z,7.03
2019-04-16T08:42:44.767Z,10.40
2019-04-16T08:45:43.121Z,7.92
2019-04-16T08:48:48.954Z,8.93
2019-04-16T08:51:47.646Z,8.40
2019-04-16T08:54:50.391Z,8.20
2019-04-16T08:57:52.078Z,7.03
2019-04-16T09:00:53.625Z,9.08
2019-04-16T09:03:54.940Z,6.45
2019-04-16T09:07:09.596Z,8.38
2019-04-16T09:10:00.013Z,10.60
2019-04-16T09:13:09.570Z,6.70
2019-04-16T09:16:11.167Z,6.37
2019-04-16T09:19:20.532Z,9.58
2019-04-16T09:22:21.991Z,8.13
2019-04-16T09:25:31.349Z,6.03
2019-04-16T09:28:34.564Z,9.28
2019-04-16T09:31:41.283Z,8.23
2019-04-16T09:35:09.184Z,9.28
2019-04-16T09:38:21.588Z,10.63
2019-04-16T09:41:24.854Z,6.70
2019-04-16T09:44:29.776Z,6.28
2019-04-16T09:47:32.667Z,6.12
2019-04-16T09:50:32.537Z,5.90
2019-04-16T09:53:37.564Z,7.37
2019-04-16T09:56:37.094Z,9.63
2019-04-16T09:59:44.662Z,6.83
2019-04-16T10:02:46.740Z,14.28
2019-04-16T10:05:48.012Z,6.97
2019-04-16T10:08:49.327Z,8.28
2019-04-16T10:11:50.816Z,8.43
2019-04-16T10:14:52.075Z,7.03
2019-04-16T10:17:53.467Z,10.18
2019-04-16T10:20:54.763Z,9.25
2019-04-16T10:23:57.945Z,10.65
2019-04-16T10:26:59.993Z,10.23
2019-04-16T10:30:02.302Z,18.23
2019-04-16T10:33:04.270Z,14.38
2019-04-16T10:36:06.155Z,15.03
2019-04-16T10:39:15.378Z,8.60
2019-04-16T10:42:21.669Z,14.90
2019-04-16T10:45:41.329Z,10.65
2019-04-16T10:48:50.780Z,5.37
2019-04-16T10:52:06.357Z,11.33
2019-04-16T10:55:18.770Z,12.95
2019-04-16T10:58:38.543Z,14.40
2019-04-16T11:01:42.238Z,7.77
2019-04-16T11:04:48.772Z,11.30
2019-04-16T11:07:51.981Z,9.68
2019-04-16T11:10:55.206Z,16.02
2019-04-16T11:14:00.219Z,12.47
2019-04-16T11:16:59.703Z,12.15
2019-04-16T11:20:01.024Z,9.05
2019-04-16T11:23:02.317Z,10.80
2019-04-16T11:26:03.791Z,10.45
2019-04-16T11:29:05.268Z,10.75
2019-04-16T11:32:07.338Z,8.30
2019-04-16T11:35:09.459Z,10.08
2019-04-16T11:38:11.116Z,10.32
2019-04-16T11:41:13.132Z,17.25
2019-04-16T11:44:16.815Z,8.75
2019-04-16T11:47:17.817Z,10.15
2019-04-16T11:50:19.310Z,13.30
2019-04-16T11:53:20.569Z,12.40
2019-04-16T11:56:22.643Z,13.58
2019-04-16T11:59:24.209Z,11.80
2019-04-16T12:02:27.598Z,14.93
2019-04-16T12:05:47.376Z,15.53
2019-04-16T12:09:07.457Z,10.95
2019-04-16T12:15:47.556Z,10.35
2019-04-16T12:18:59.643Z,12.15
2019-04-16T12:22:03.132Z,14.70
2019-04-16T12:25:26.689Z,15.85
2019-04-16T12:28:43.340Z,22.10
2019-04-16T12:31:49.487Z,17.32
2019-04-16T12:35:09.306Z,22.30
2019-04-16T12:38:31.188Z,16.85
2019-04-16T12:41:43.698Z,17.00
2019-04-16T12:44:56.205Z,16.90
2019-04-16T12:48:16.421Z,16.67
2019-04-16T12:51:25.953Z,17.73
2019-04-16T12:58:03.891Z,17.27
2019-04-16T13:01:25.683Z,17.77
2019-04-16T13:04:45.764Z,27.60
2019-04-16T13:08:07.063Z,22.75
2019-04-16T13:11:25.383Z,26.55
2019-04-16T13:14:31.437Z,24.65
2019-04-16T13:17:40.615Z,22.02
2019-04-16T13:20:46.929Z,20.10
2019-04-16T13:23:56.007Z,22.95
2019-04-16T13:26:59.189Z,21.17
2019-04-16T13:30:02.371Z,24.75
2019-04-16T13:33:04.449Z,27.42
2019-04-16T13:36:05.893Z,29.92
2019-04-16T13:39:10.579Z,24.77
2019-04-16T13:42:13.096Z,38.15
2019-04-16T13:45:32.434Z,34.00
2019-04-16T13:48:42.529Z,34.20
2019-04-16T13:51:45.086Z,32.98
2019-04-16T13:55:01.253Z,27.67
2019-04-16T13:58:04.600Z,25.70
2019-04-16T14:01:17.173Z,26.52
2019-04-16T14:04:19.036Z,28.05
2019-04-16T14:07:20.399Z,30.40
2019-04-16T14:10:43.323Z,31.33
2019-04-16T14:13:45.996Z,30.80
2019-04-16T14:16:48.103Z,30.90
2019-04-16T14:19:49.403Z,28.40
2019-04-16T14:22:53.534Z,31.65
2019-04-16T14:25:54.246Z,37.73
2019-04-16T14:28:56.978Z,40.38
2019-04-16T14:32:00.859Z,54.53
2019-04-16T14:35:05.507Z,41.23
2019-04-16T14:38:07.521Z,40.88
2019-04-16T14:41:11.945Z,54.18
2019-04-16T14:44:14.381Z,38.30
2019-04-16T14:47:17.786Z,48.65
2019-04-16T14:50:19.961Z,42.90
2019-04-16T14:53:36.670Z,43.48
2019-04-16T14:56:40.166Z,34.20
2019-04-16T14:59:47.821Z,38.80
2019-04-16T15:02:51.184Z,42.98
2019-04-16T15:05:55.341Z,45.35
2019-04-16T15:09:13.689Z,36.73
2019-04-16T15:12:28.079Z,39.25
2019-04-16T15:15:36.378Z,49.42
2019-04-16T15:18:57.823Z,46.10
2019-04-16T15:22:17.812Z,50.60
2019-04-16T15:25:21.688Z,39.10
2019-04-16T15:28:28.254Z,80.17
2019-04-16T15:31:46.004Z,64.22
2019-04-16T15:34:49.246Z,123.40
2019-04-16T15:37:57.853Z,233.02
2019-04-16T15:41:00.634Z,271.68
2019-04-16T15:44:23.652Z,120.37
2019-04-16T15:47:31.906Z,129.18
2019-04-16T15:50:53.743Z,107.92
2019-04-16T15:53:59.676Z,69.55
2019-04-16T15:57:19.867Z,56.68
2019-04-16T16:00:23.411Z,62.78
2019-04-16T16:03:29.787Z,57.30
2019-04-16T16:06:33.514Z,52.75
2019-04-16T16:09:49.615Z,51.98
2019-04-16T16:12:53.608Z,56.73
2019-04-16T16:15:55.667Z,70.67
2019-04-16T16:18:57.237Z,58.63
2019-04-16T16:21:59.834Z,77.15
2019-04-16T16:25:01.844Z,57.85
2019-04-16T16:28:04.598Z,60.90
2019-04-16T16:31:06.313Z,62.55
2019-04-16T16:34:09.086Z,76.65
2019-04-16T16:37:11.078Z,63.52
2019-04-16T16:40:15.192Z,60.83
2019-04-16T16:43:16.745Z,61.25
2019-04-16T16:46:35.063Z,58.78
2019-04-16T16:49:36.567Z,59.38
2019-04-16T16:52:59.225Z,67.10
2019-04-16T16:56:03.570Z,67.75
2019-04-16T16:59:23.569Z,55.28
2019-04-16T17:02:32.109Z,42.60
2019-04-16T17:05:35.662Z,68.28
2019-04-16T17:08:37.343Z,74.25
2019-04-16T17:11:42.846Z,84.05
2019-04-16T17:14:44.114Z,74.03
2019-04-16T17:17:45.920Z,87.53
2019-04-16T17:20:50.381Z,114.72
2019-04-16T17:23:52.706Z,77.60
2019-04-16T17:26:55.990Z,76.80
2019-04-16T17:30:00.888Z,78.67
2019-04-16T17:33:02.765Z,72.37
2019-04-16T17:36:05.564Z,78.55
2019-04-16T17:39:10.431Z,76.67
2019-04-16T17:42:14.046Z,75.30
2019-04-16T17:45:36.554Z,71.02
2019-04-16T17:48:46.101Z,77.90
2019-04-16T17:51:51.204Z,84.37
2019-04-16T17:58:27.322Z,86.82
2019-04-16T18:01:43.567Z,105.50
2019-04-16T18:05:05.491Z,104.15
2019-04-16T18:08:27.479Z,90.77
2019-04-16T18:11:31.751Z,98.67
2019-04-16T18:18:16.828Z,109.85
2019-04-16T18:21:31.706Z,111.30
2019-04-16T18:24:41.416Z,135.43
2019-04-16T18:28:04.358Z,95.92
2019-04-16T18:31:25.155Z,103.15
2019-04-16T18:34:35.569Z,95.65
2019-04-16T18:37:54.878Z,136.15
2019-04-16T18:41:01.940Z,106.58
2019-04-16T18:44:10.009Z,104.72
2019-04-16T18:47:30.282Z,100.00
2019-04-16T18:50:32.343Z,111.10
2019-04-16T18:53:34.564Z,105.07
2019-04-16T18:56:38.280Z,113.08
2019-04-16T18:59:40.671Z,126.90
2019-04-16T19:02:44.082Z,149.72
2019-04-16T19:05:48.022Z,139.95
2019-04-16T19:08:50.681Z,135.70
2019-04-16T19:11:56.184Z,121.70
2019-04-16T19:15:01.785Z,114.30
2019-04-16T19:18:18.516Z,110.63
2019-04-16T19:21:07.159Z,103.78
2019-04-16T19:24:09.056Z,111.57
2019-04-16T19:27:12.833Z,110.08
2019-04-16T19:30:15.745Z,90.62
2019-04-16T19:33:17.689Z,104.30
2019-04-16T19:36:27.224Z,93.40
2019-04-16T19:39:26.425Z,91.50
2019-04-16T19:42:28.721Z,82.42
2019-04-16T19:45:33.870Z,87.40
2019-04-16T19:48:36.378Z,101.22
2019-04-16T19:51:41.965Z,107.75
2019-04-16T19:54:44.314Z,97.35
2019-04-16T19:57:47.603Z,97.70
2019-04-16T20:00:50.144Z,113.32
2019-04-16T20:03:52.010Z,125.18
2019-04-16T20:06:59.989Z,115.97
2019-04-16T20:09:59.773Z,130.63
2019-04-16T20:13:01.362Z,106.83
2019-04-16T20:16:03.491Z,107.05
2019-04-16T20:19:05.430Z,115.15
2019-04-16T20:22:07.211Z,113.45
2019-04-16T20:25:09.543Z,101.75
2019-04-16T20:28:15.460Z,122.78
2019-04-16T20:31:14.564Z,117.53
2019-04-16T20:34:18.048Z,112.97
2019-04-16T20:37:21.376Z,111.90
2019-04-16T20:40:23.837Z,109.45
2019-04-16T20:43:25.106Z,128.12
2019-04-16T20:46:26.793Z,118.22
2019-04-16T20:49:28.618Z,122.80
2019-04-16T20:52:30.853Z,136.07
2019-04-16T20:55:33.574Z,120.37
2019-04-16T20:58:35.073Z,145.12
2019-04-16T21:01:37.815Z,127.47
2019-04-16T21:04:39.784Z,121.50
2019-04-16T21:07:43.934Z,108.17
2019-04-16T21:10:44.796Z,105.50
2019-04-16T21:13:46.945Z,103.72
2019-04-16T21:16:49.600Z,106.83
2019-04-16T21:19:50.834Z,109.63
2019-04-16T21:22:52.872Z,107.47
2019-04-16T21:25:54.167Z,115.57
2019-04-16T21:29:02.134Z,116.88
2019-04-16T21:32:23.961Z,116.60
2019-04-16T21:35:32.006Z,103.30
2019-04-16T21:38:38.240Z,101.58
2019-04-16T21:41:39.641Z,101.07
2019-04-16T21:44:41.351Z,92.47
2019-04-16T21:47:44.551Z,89.90
2019-04-16T21:50:47.604Z,81.05
2019-04-16T21:53:49.152Z,87.25
2019-04-16T21:56:54.630Z,81.72
2019-04-16T21:59:58.082Z,93.75
2019-04-16T22:02:58.140Z,98.30
2019-04-16T22:05:59.914Z,88.62
2019-04-16T22:09:03.286Z,94.40
2019-04-16T22:12:06.252Z,97.67
2019-04-16T22:15:07.613Z,91.08
2019-04-16T22:18:10.012Z,97.60
2019-04-16T22:21:11.799Z,82.70
2019-04-16T22:24:13.190Z,94.77
2019-04-16T22:27:14.462Z,75.17
2019-04-16T22:30:19.105Z,67.80
2019-04-16T22:33:18.956Z,73.50
2019-04-16T22:36:20.514Z,74.87
2019-04-16T22:39:23.684Z,75.45
2019-04-16T22:42:29.845Z,78.10
2019-04-16T22:45:32.824Z,74.22
2019-04-16T22:48:34.099Z,84.67
2019-04-16T22:51:35.621Z,77.32
2019-04-16T22:54:36.993Z,79.75
2019-04-16T22:57:38.377Z,75.95
2019-04-16T23:00:44.407Z,85.28
2019-04-16T23:03:44.696Z,81.30
2019-04-16T23:06:46.185Z,79.92
2019-04-16T23:09:48.679Z,80.17
2019-04-16T23:12:51.739Z,89.77
2019-04-16T23:15:53.010Z,83.92
2019-04-16T23:18:54.583Z,96.57
2019-04-16T23:21:55.844Z,89.45
2019-04-16T23:24:57.729Z,112.50
2019-04-16T23:27:59.375Z,93.70
2019-04-16T23:31:01.367Z,94.97
2019-04-16T23:34:06.047Z,91.55
2019-04-16T23:37:05.881Z,86.20
2019-04-16T23:40:10.573Z,85.57
2019-04-16T23:43:18.745Z,88.65
2019-04-16T23:46:40.045Z,99.55
2019-04-16T23:49:48.996Z,84.45
2019-04-16T23:53:08.846Z,78.12
2019-04-16T23:56:24.445Z,78.57
2019-04-16T23:59:32.668Z,80.92
